Pertusola — IBER — position and weather

sailwx.info

Track history (hours):
 
Tides and Currents Weather Stations Pressure Air Temp Water Temp Dewpoint Dewpoint Depression Visibility Wind Speed Wind Dir Waves Ship Positions

Pertusola

Last reported at 2014-Sep-01 21:33 UTC. Time now 2014-Sep-02 02:23 UTC.
Position N 51°44' E 002°31'.

Length 145 m; draft 9.2 m.

Type: Ship (hazmat cat A). MMSI: 247399000.

Date/timePositionNaut miles runAvg speedWind from/ knotsBaromVisibWave heightAir tempDewpointWater temp
2014-Sep-01 21:33N 51°44' E 002°31'1515.0
2014-Sep-01 20:33N 51°33' E 002°15'1515.5
2014-Sep-01 19:34N 51°21' E 001°59'1615.9
2014-Sep-01 18:33N 51°09' E 001°43'4815.4
2014-Sep-01 15:26N 50°29' E 001°01'1415.3
2014-Sep-01 14:33N 50°24' E 000°41'14215.5
2014-Sep-01 05:23N 49°47' W 002°52'3113.5
2014-Sep-01 03:07N 49°32' W 003°34'13714.2
2014-Aug-31 17:27N 48°02' W 006°11'65713.2
2014-Aug-29 15:33N 37°22' W 009°32'2813.8
2014-Aug-29 13:33N 36°55' W 009°24'2512.7
2014-Aug-29 11:33N 36°39' W 008°59'4914.1
2014-Aug-29 08:07N 36°25' W 008°01'814.8
2014-Aug-29 07:33N 36°23' W 007°51'120 6.9
2014-Aug-28 14:14N 36°05' W 005°25'4 2.6
2014-Aug-28 12:33N 36°06' W 005°20'16012.9
2014-Aug-28 00:08N 36°28' W 002°03'915.0
2014-Aug-27 23:33N 36°29' W 001°52'5115.0
2014-Aug-27 20:08N 36°38' W 000°49'915.1
2014-Aug-27 19:32N 36°39' W 000°38'1515.1
2014-Aug-27 18:33N 36°41' W 000°20'1614.6
2014-Aug-27 17:29N 36°44' W 000°00'1614.5
2014-Aug-27 16:23N 36°47' E 000°19'1213.9
2014-Aug-27 15:33N 36°49' E 000°34'1414.1
2014-Aug-27 14:33N 36°52' E 000°51'1514.5
2014-Aug-27 13:32N 36°54' E 001°09'1414.3
2014-Aug-27 12:33N 36°57' E 001°27'1414.5
2014-Aug-27 11:34N 36°59' E 001°44'1514.4
2014-Aug-27 10:33N 37°01' E 002°02'1414.6
2014-Aug-27 09:33N 37°05' E 002°20'1514.6
2014-Aug-27 08:33N 37°08' E 002°37'1414.1
2014-Aug-27 07:32N 37°10' E 002°55'1313.3
2014-Aug-27 06:32N 37°12' E 003°12'1313.4
2014-Aug-27 05:33N 37°14' E 003°28'2114.5
2014-Aug-27 04:05N 37°17' E 003°55'914.5
2014-Aug-27 03:27N 37°19' E 004°06'1314.5
2014-Aug-27 02:33N 37°21' E 004°22'1514.3
2014-Aug-27 01:32N 37°24' E 004°40'1414.3
2014-Aug-27 00:33N 37°26' E 004°57'1614.7
2014-Aug-26 23:28N 37°29' E 005°17'1415.2
2014-Aug-26 22:33N 37°31' E 005°35'1915.9
2014-Aug-26 21:23N 37°34' E 005°58'1214.4
2014-Aug-26 20:32N 37°37' E 006°13'1514.7
2014-Aug-26 19:33N 37°39' E 006°31'1614.6
2014-Aug-26 18:28N 37°42' E 006°51'3014.9
2014-Aug-26 16:26N 37°47' E 007°28'1314.0
2014-Aug-26 15:32N 37°50' E 007°44'1414.6
2014-Aug-26 14:33N 37°52' E 008°02'1514.5
2014-Aug-26 13:32N 37°54' E 008°20'1414.6
2014-Aug-26 12:33N 37°57' E 008°38'1514.5
2014-Aug-26 11:33N 37°59' E 008°56'1515.1
2014-Aug-26 10:33N 37°59' E 009°15'1515.1
2014-Aug-26 09:33N 37°59' E 009°35'1514.8
2014-Aug-26 08:33N 37°59' E 009°53'1514.6
2014-Aug-26 07:33N 37°60' E 010°12'1414.4
2014-Aug-26 06:33N 37°60' E 010°30'1514.5
2014-Aug-26 05:32N 38°00' E 010°49'14313.6
2014-Aug-25 19:03N 37°04' E 013°34'714.2
2014-Aug-25 18:34N 37°00' E 013°42'1414.1
2014-Aug-25 17:34N 36°53' E 013°57'1413.9
2014-Aug-25 16:33N 36°46' E 014°12'1413.9
2014-Aug-25 15:33N 36°41' E 014°28'8213.6
2014-Aug-25 09:29N 35°42' E 015°39'24514.5
2014-Aug-24 16:33N 32°14' E 018°15'4713.9
2014-Aug-24 13:10N 31°35' E 018°46'1414.2
2014-Aug-24 12:12N 31°23' E 018°54'1214.4
2014-Aug-24 11:22N 31°13' E 019°02'1314.5
2014-Aug-24 10:28N 31°02' E 019°10'  
Track history (hours):
 
Tides and Currents Weather Stations Pressure Air Temp Water Temp Dewpoint Dewpoint Depression Visibility Wind Speed Wind Dir Waves Ship Positions

Pertusola

Last reported at 2014-Sep-01 21:33 UTC. Time now 2014-Sep-02 02:23 UTC.
Position N 51°44' E 002°31'.

Length 145 m; draft 9.2 m.

Type: Ship (hazmat cat A). MMSI: 247399000.

Date/timePositionNaut miles runAvg speedWind from/ knotsBaromVisibWave heightAir tempDewpointWater temp
2014-Sep-01 21:33N 51°44' E 002°31'1515.0
2014-Sep-01 20:33N 51°33' E 002°15'1515.5
2014-Sep-01 19:34N 51°21' E 001°59'1615.9
2014-Sep-01 18:33N 51°09' E 001°43'4815.4
2014-Sep-01 15:26N 50°29' E 001°01'1415.3
2014-Sep-01 14:33N 50°24' E 000°41'14215.5
2014-Sep-01 05:23N 49°47' W 002°52'3113.5
2014-Sep-01 03:07N 49°32' W 003°34'13714.2
2014-Aug-31 17:27N 48°02' W 006°11'65713.2
2014-Aug-29 15:33N 37°22' W 009°32'2813.8
2014-Aug-29 13:33N 36°55' W 009°24'2512.7
2014-Aug-29 11:33N 36°39' W 008°59'4914.1
2014-Aug-29 08:07N 36°25' W 008°01'814.8
2014-Aug-29 07:33N 36°23' W 007°51'120 6.9
2014-Aug-28 14:14N 36°05' W 005°25'4 2.6
2014-Aug-28 12:33N 36°06' W 005°20'16012.9
2014-Aug-28 00:08N 36°28' W 002°03'915.0
2014-Aug-27 23:33N 36°29' W 001°52'5115.0
2014-Aug-27 20:08N 36°38' W 000°49'915.1
2014-Aug-27 19:32N 36°39' W 000°38'1515.1
2014-Aug-27 18:33N 36°41' W 000°20'1614.6
2014-Aug-27 17:29N 36°44' W 000°00'1614.5
2014-Aug-27 16:23N 36°47' E 000°19'1213.9
2014-Aug-27 15:33N 36°49' E 000°34'1414.1
2014-Aug-27 14:33N 36°52' E 000°51'1514.5
2014-Aug-27 13:32N 36°54' E 001°09'1414.3
2014-Aug-27 12:33N 36°57' E 001°27'1414.5
2014-Aug-27 11:34N 36°59' E 001°44'1514.4
2014-Aug-27 10:33N 37°01' E 002°02'1414.6
2014-Aug-27 09:33N 37°05' E 002°20'1514.6
2014-Aug-27 08:33N 37°08' E 002°37'1414.1
2014-Aug-27 07:32N 37°10' E 002°55'1313.3
2014-Aug-27 06:32N 37°12' E 003°12'1313.4
2014-Aug-27 05:33N 37°14' E 003°28'2114.5
2014-Aug-27 04:05N 37°17' E 003°55'914.5
2014-Aug-27 03:27N 37°19' E 004°06'1314.5
2014-Aug-27 02:33N 37°21' E 004°22'1514.3
2014-Aug-27 01:32N 37°24' E 004°40'1414.3
2014-Aug-27 00:33N 37°26' E 004°57'1614.7
2014-Aug-26 23:28N 37°29' E 005°17'1415.2
2014-Aug-26 22:33N 37°31' E 005°35'1915.9
2014-Aug-26 21:23N 37°34' E 005°58'1214.4
2014-Aug-26 20:32N 37°37' E 006°13'1514.7
2014-Aug-26 19:33N 37°39' E 006°31'1614.6
2014-Aug-26 18:28N 37°42' E 006°51'3014.9
2014-Aug-26 16:26N 37°47' E 007°28'1314.0
2014-Aug-26 15:32N 37°50' E 007°44'1414.6
2014-Aug-26 14:33N 37°52' E 008°02'1514.5
2014-Aug-26 13:32N 37°54' E 008°20'1414.6
2014-Aug-26 12:33N 37°57' E 008°38'1514.5
2014-Aug-26 11:33N 37°59' E 008°56'1515.1
2014-Aug-26 10:33N 37°59' E 009°15'1515.1
2014-Aug-26 09:33N 37°59' E 009°35'1514.8
2014-Aug-26 08:33N 37°59' E 009°53'1514.6
2014-Aug-26 07:33N 37°60' E 010°12'1414.4
2014-Aug-26 06:33N 37°60' E 010°30'1514.5
2014-Aug-26 05:32N 38°00' E 010°49'14313.6
2014-Aug-25 19:03N 37°04' E 013°34'714.2
2014-Aug-25 18:34N 37°00' E 013°42'1414.1
2014-Aug-25 17:34N 36°53' E 013°57'1413.9
2014-Aug-25 16:33N 36°46' E 014°12'1413.9
2014-Aug-25 15:33N 36°41' E 014°28'8213.6
2014-Aug-25 09:29N 35°42' E 015°39'24514.5
2014-Aug-24 16:33N 32°14' E 018°15'4713.9
2014-Aug-24 13:10N 31°35' E 018°46'1414.2
2014-Aug-24 12:12N 31°23' E 018°54'1214.4
2014-Aug-24 11:22N 31°13' E 019°02'1314.5
2014-Aug-24 10:28N 31°02' E 019°10'  

Dump ship's entire track history